<?xml version="1.0"?>
<gpx xmlns="http://www.topografix.com/GPX/1/1" version="1.1" creator="afstandmeten.nl" xmlns:xsi="http://www.w3.org/2001/XMLSchema-instance" xsi:schemaLocation="http://www.topografix.com/GPX/1/1 http://www.topografix.com/GPX/1/1/gpx.xsd">
  <wpt lat="52.0758003" lon="6.0180402">
    <time>2018-01-01T01:01:01.000Z</time>
    <name>WATER</name>
    <cmt>WATER</cmt>
    <desc>WATER</desc>
  </wpt>
  <trk>
    <name>trail 10km lenteloop 2026 eerbeek</name>
    <desc/>
    <trkseg>
      <trkpt lat="52.0919364" lon="6.0363061">
        <ele>0.00000</ele>
        <time>2025-12-05T00:00:00Z</time>
      </trkpt>
      <trkpt lat="52.091142" lon="6.037132">
        <ele>0.00000</ele>
        <time>2025-12-05T00:00:37Z</time>
      </trkpt>
      <trkpt lat="52.0905319" lon="6.0375774">
        <ele>0.00000</ele>
        <time>2025-12-05T00:01:03Z</time>
      </trkpt>
      <trkpt lat="52.0903804" lon="6.0378081">
        <ele>0.00000</ele>
        <time>2025-12-05T00:01:12Z</time>
      </trkpt>
      <trkpt lat="52.0901299" lon="6.0384195">
        <ele>0.00000</ele>
        <time>2025-12-05T00:01:29Z</time>
      </trkpt>
      <trkpt lat="52.0896756" lon="6.0389882">
        <ele>0.00000</ele>
        <time>2025-12-05T00:01:52Z</time>
      </trkpt>
      <trkpt lat="52.0897674" lon="6.0403616">
        <ele>0.00000</ele>
        <time>2025-12-05T00:02:25Z</time>
      </trkpt>
      <trkpt lat="52.090288" lon="6.0413056">
        <ele>0.00000</ele>
        <time>2025-12-05T00:02:55Z</time>
      </trkpt>
      <trkpt lat="52.089576" lon="6.042588">
        <ele>0.00000</ele>
        <time>2025-12-05T00:03:37Z</time>
      </trkpt>
      <trkpt lat="52.089459" lon="6.042803">
        <ele>0.00000</ele>
        <time>2025-12-05T00:03:44Z</time>
      </trkpt>
      <trkpt lat="52.091764" lon="6.046397">
        <ele>0.00000</ele>
        <time>2025-12-05T00:05:49Z</time>
      </trkpt>
      <trkpt lat="52.091764" lon="6.046397">
        <ele>0.00000</ele>
        <time>2025-12-05T00:05:49Z</time>
      </trkpt>
      <trkpt lat="52.09171" lon="6.046323">
        <ele>0.00000</ele>
        <time>2025-12-05T00:05:51Z</time>
      </trkpt>
      <trkpt lat="52.091785" lon="6.046532">
        <ele>0.00000</ele>
        <time>2025-12-05T00:05:57Z</time>
      </trkpt>
      <trkpt lat="52.091775" lon="6.046623">
        <ele>0.00000</ele>
        <time>2025-12-05T00:05:59Z</time>
      </trkpt>
      <trkpt lat="52.091486" lon="6.047072">
        <ele>0.00000</ele>
        <time>2025-12-05T00:06:15Z</time>
      </trkpt>
      <trkpt lat="52.091486" lon="6.047072">
        <ele>0.00000</ele>
        <time>2025-12-05T00:06:15Z</time>
      </trkpt>
      <trkpt lat="52.091522" lon="6.047412">
        <ele>0.00000</ele>
        <time>2025-12-05T00:06:23Z</time>
      </trkpt>
      <trkpt lat="52.09159" lon="6.047539">
        <ele>0.00000</ele>
        <time>2025-12-05T00:06:27Z</time>
      </trkpt>
      <trkpt lat="52.09159" lon="6.047539">
        <ele>0.00000</ele>
        <time>2025-12-05T00:06:27Z</time>
      </trkpt>
      <trkpt lat="52.091618" lon="6.04759">
        <ele>0.00000</ele>
        <time>2025-12-05T00:06:29Z</time>
      </trkpt>
      <trkpt lat="52.091392" lon="6.047887">
        <ele>0.00000</ele>
        <time>2025-12-05T00:06:40Z</time>
      </trkpt>
      <trkpt lat="52.090716" lon="6.049242">
        <ele>0.00000</ele>
        <time>2025-12-05T00:07:22Z</time>
      </trkpt>
      <trkpt lat="52.090716" lon="6.049242">
        <ele>0.00000</ele>
        <time>2025-12-05T00:07:22Z</time>
      </trkpt>
      <trkpt lat="52.0909" lon="6.050106">
        <ele>0.00000</ele>
        <time>2025-12-05T00:07:44Z</time>
      </trkpt>
      <trkpt lat="52.0901015" lon="6.0504661">
        <ele>0.00000</ele>
        <time>2025-12-05T00:08:17Z</time>
      </trkpt>
      <trkpt lat="52.0895621" lon="6.0496308">
        <ele>0.00000</ele>
        <time>2025-12-05T00:08:46Z</time>
      </trkpt>
      <trkpt lat="52.0872855" lon="6.0536816">
        <ele>0.00000</ele>
        <time>2025-12-05T00:10:57Z</time>
      </trkpt>
      <trkpt lat="52.0866987" lon="6.0526726">
        <ele>0.00000</ele>
        <time>2025-12-05T00:11:31Z</time>
      </trkpt>
      <trkpt lat="52.0862244" lon="6.0510099">
        <ele>0.00000</ele>
        <time>2025-12-05T00:12:15Z</time>
      </trkpt>
      <trkpt lat="52.0856244" lon="6.0511064">
        <ele>0.00000</ele>
        <time>2025-12-05T00:12:38Z</time>
      </trkpt>
      <trkpt lat="52.0853279" lon="6.0503556">
        <ele>0.00000</ele>
        <time>2025-12-05T00:13:00Z</time>
      </trkpt>
      <trkpt lat="52.0857891" lon="6.0496365">
        <ele>0.00000</ele>
        <time>2025-12-05T00:13:25Z</time>
      </trkpt>
      <trkpt lat="52.0849051" lon="6.0477815">
        <ele>0.00000</ele>
        <time>2025-12-05T00:14:21Z</time>
      </trkpt>
      <trkpt lat="52.0848127" lon="6.0474166">
        <ele>0.00000</ele>
        <time>2025-12-05T00:14:31Z</time>
      </trkpt>
      <trkpt lat="52.0844765" lon="6.047052">
        <ele>0.00000</ele>
        <time>2025-12-05T00:14:47Z</time>
      </trkpt>
      <trkpt lat="52.0837186" lon="6.0443059">
        <ele>0.00000</ele>
        <time>2025-12-05T00:15:59Z</time>
      </trkpt>
      <trkpt lat="52.0837251" lon="6.0437787">
        <ele>0.00000</ele>
        <time>2025-12-05T00:16:12Z</time>
      </trkpt>
      <trkpt lat="52.0814509" lon="6.0393915">
        <ele>0.00000</ele>
        <time>2025-12-05T00:18:29Z</time>
      </trkpt>
      <trkpt lat="52.0805084" lon="6.0406771">
        <ele>0.00000</ele>
        <time>2025-12-05T00:19:17Z</time>
      </trkpt>
      <trkpt lat="52.0794139" lon="6.0423403">
        <ele>0.00000</ele>
        <time>2025-12-05T00:20:16Z</time>
      </trkpt>
      <trkpt lat="52.0804084" lon="6.0443262">
        <ele>0.00000</ele>
        <time>2025-12-05T00:21:18Z</time>
      </trkpt>
      <trkpt lat="52.0798417" lon="6.0452166">
        <ele>0.00000</ele>
        <time>2025-12-05T00:21:48Z</time>
      </trkpt>
      <trkpt lat="52.0796925" lon="6.0449228">
        <ele>0.00000</ele>
        <time>2025-12-05T00:21:58Z</time>
      </trkpt>
      <trkpt lat="52.0753691" lon="6.0387435">
        <ele>0.00000</ele>
        <time>2025-12-05T00:25:42Z</time>
      </trkpt>
      <trkpt lat="52.06972" lon="6.0289621">
        <ele>0.00000</ele>
        <time>2025-12-05T00:31:05Z</time>
      </trkpt>
      <trkpt lat="52.0766179" lon="6.0190701">
        <ele>0.00000</ele>
        <time>2025-12-05T00:37:04Z</time>
      </trkpt>
      <trkpt lat="52.0757409" lon="6.0171497">
        <ele>0.00000</ele>
        <time>2025-12-05T00:38:02Z</time>
      </trkpt>
      <trkpt lat="52.0774772" lon="6.0127365">
        <ele>0.00000</ele>
        <time>2025-12-05T00:40:08Z</time>
      </trkpt>
      <trkpt lat="52.0807735" lon="6.0155249">
        <ele>0.00000</ele>
        <time>2025-12-05T00:42:33Z</time>
      </trkpt>
      <trkpt lat="52.0798025" lon="6.0173967">
        <ele>0.00000</ele>
        <time>2025-12-05T00:43:32Z</time>
      </trkpt>
      <trkpt lat="52.0810812" lon="6.0187162">
        <ele>0.00000</ele>
        <time>2025-12-05T00:44:31Z</time>
      </trkpt>
      <trkpt lat="52.0806866" lon="6.0212699">
        <ele>0.00000</ele>
        <time>2025-12-05T00:45:34Z</time>
      </trkpt>
      <trkpt lat="52.0812204" lon="6.0220207">
        <ele>0.00000</ele>
        <time>2025-12-05T00:46:02Z</time>
      </trkpt>
      <trkpt lat="52.081695" lon="6.0232543">
        <ele>0.00000</ele>
        <time>2025-12-05T00:46:37Z</time>
      </trkpt>
      <trkpt lat="52.0826313" lon="6.0252072">
        <ele>0.00000</ele>
        <time>2025-12-05T00:47:36Z</time>
      </trkpt>
      <trkpt lat="52.0828159" lon="6.0250407">
        <ele>0.00000</ele>
        <time>2025-12-05T00:47:45Z</time>
      </trkpt>
      <trkpt lat="52.0855708" lon="6.0314073">
        <ele>0.00000</ele>
        <time>2025-12-05T00:50:52Z</time>
      </trkpt>
      <trkpt lat="52.0845717" lon="6.0324371">
        <ele>0.00000</ele>
        <time>2025-12-05T00:51:38Z</time>
      </trkpt>
      <trkpt lat="52.0869331" lon="6.0373252">
        <ele>0.00000</ele>
        <time>2025-12-05T00:54:07Z</time>
      </trkpt>
      <trkpt lat="52.0874111" lon="6.0363812">
        <ele>0.00000</ele>
        <time>2025-12-05T00:54:37Z</time>
      </trkpt>
      <trkpt lat="52.0887164" lon="6.0385965">
        <ele>0.00000</ele>
        <time>2025-12-05T00:55:50Z</time>
      </trkpt>
      <trkpt lat="52.0894313" lon="6.0400663">
        <ele>0.00000</ele>
        <time>2025-12-05T00:56:35Z</time>
      </trkpt>
      <trkpt lat="52.0895337" lon="6.038752">
        <ele>0.00000</ele>
        <time>2025-12-05T00:57:07Z</time>
      </trkpt>
      <trkpt lat="52.0890294" lon="6.0379636">
        <ele>0.00000</ele>
        <time>2025-12-05T00:57:35Z</time>
      </trkpt>
      <trkpt lat="52.089532" lon="6.0368635">
        <ele>0.00000</ele>
        <time>2025-12-05T00:58:07Z</time>
      </trkpt>
      <trkpt lat="52.0899802" lon="6.03674">
        <ele>0.00000</ele>
        <time>2025-12-05T00:58:25Z</time>
      </trkpt>
      <trkpt lat="52.0906097" lon="6.037389">
        <ele>0.00000</ele>
        <time>2025-12-05T00:58:54Z</time>
      </trkpt>
      <trkpt lat="52.0906842" lon="6.0371161">
        <ele>0.00000</ele>
        <time>2025-12-05T00:59:02Z</time>
      </trkpt>
      <trkpt lat="52.0911422" lon="6.0371697">
        <ele>0.00000</ele>
        <time>2025-12-05T00:59:20Z</time>
      </trkpt>
      <trkpt lat="52.0919397" lon="6.0362686">
        <ele>0.00000</ele>
        <time>2025-12-05T00:59:57Z</time>
      </trkpt>
    </trkseg>
  </trk>
</gpx>

